createdAt,value
2023-03-06T00:00:09.127Z,1000.86
2023-03-06T00:01:09.143Z,1000.86
2023-03-06T00:02:09.091Z,1000.84
2023-03-06T00:03:09.090Z,1000.83
2023-03-06T00:04:09.120Z,1000.82
2023-03-06T00:05:09.063Z,1000.80
2023-03-06T00:06:09.214Z,1000.77
2023-03-06T00:07:09.032Z,1000.75
2023-03-06T00:08:09.030Z,1000.76
2023-03-06T00:09:09.016Z,1000.76
2023-03-06T00:10:09.034Z,1000.75
2023-03-06T00:11:09.018Z,1000.73
2023-03-06T00:12:08.993Z,1000.71
2023-03-06T00:13:08.980Z,1000.70
2023-03-06T00:14:08.977Z,1000.70
2023-03-06T00:15:08.973Z,1000.69
2023-03-06T00:16:09.063Z,1000.68
2023-03-06T00:17:08.941Z,1000.66
2023-03-06T00:18:08.944Z,1000.65
2023-03-06T00:19:08.926Z,1000.65
2023-03-06T00:20:08.909Z,1000.65
2023-03-06T00:21:08.955Z,1000.65
2023-03-06T00:22:08.899Z,1000.64
2023-03-06T00:23:08.917Z,1000.63
2023-03-06T00:24:08.920Z,1000.62
2023-03-06T00:25:08.887Z,1000.61
2023-03-06T00:26:08.884Z,1000.60
2023-03-06T00:27:08.851Z,1000.60
2023-03-06T00:28:08.832Z,1000.60
2023-03-06T00:29:08.826Z,1000.59
2023-03-06T00:30:08.839Z,1000.59
2023-03-06T00:31:08.886Z,1000.59
2023-03-06T00:32:08.822Z,1000.55
2023-03-06T00:33:08.783Z,1000.56
2023-03-06T00:34:08.789Z,1000.52
2023-03-06T00:35:08.775Z,1000.52
2023-03-06T00:36:08.825Z,1000.50
2023-03-06T00:37:08.738Z,1000.48
2023-03-06T00:38:08.748Z,1000.47
2023-03-06T00:39:08.728Z,1000.44
2023-03-06T00:40:08.746Z,1000.41
2023-03-06T00:41:08.724Z,1000.41
2023-03-06T00:42:08.697Z,1000.38
2023-03-06T00:43:08.691Z,1000.38
2023-03-06T00:44:08.695Z,1000.36
2023-03-06T00:45:08.663Z,1000.35
2023-03-06T00:46:08.738Z,1000.31
2023-03-06T00:47:08.653Z,1000.29
2023-03-06T00:48:08.657Z,1000.27
2023-03-06T00:49:08.618Z,1000.23
2023-03-06T00:50:08.625Z,1000.23
2023-03-06T00:51:08.629Z,1000.20
2023-03-06T00:52:08.592Z,1000.16
2023-03-06T00:53:08.597Z,1000.17
2023-03-06T00:54:08.585Z,1000.19
2023-03-06T00:55:08.558Z,1000.21
2023-03-06T00:56:08.553Z,1000.21
2023-03-06T00:57:08.556Z,1000.16
2023-03-06T00:58:08.569Z,1000.14
2023-03-06T00:59:08.519Z,1000.10
2023-03-06T01:00:08.524Z,1000.07
2023-03-06T01:01:08.549Z,1000.04
2023-03-06T01:02:08.577Z,1000.03
2023-03-06T01:03:08.501Z,999.99
2023-03-06T01:04:08.494Z,999.99
2023-03-06T01:05:08.457Z,999.95
2023-03-06T01:06:08.456Z,999.90
2023-03-06T01:07:08.457Z,999.86
2023-03-06T01:08:08.439Z,999.81
2023-03-06T01:09:08.417Z,999.80
2023-03-06T01:10:08.430Z,999.85
2023-03-06T01:11:08.405Z,999.87
2023-03-06T01:12:08.432Z,999.89
2023-03-06T01:13:08.423Z,999.87
2023-03-06T01:14:08.372Z,999.85
2023-03-06T01:15:08.372Z,999.83
2023-03-06T01:16:08.396Z,999.81
2023-03-06T01:17:08.358Z,999.77
2023-03-06T01:18:08.350Z,999.73
2023-03-06T01:19:08.309Z,999.70
2023-03-06T01:20:08.330Z,999.67
2023-03-06T01:21:08.302Z,999.66
2023-03-06T01:22:08.315Z,999.65
2023-03-06T01:23:08.296Z,999.64
2023-03-06T01:24:08.276Z,999.59
2023-03-06T01:25:08.269Z,999.53
2023-03-06T01:26:08.268Z,999.54
2023-03-06T01:27:08.339Z,999.52
2023-03-06T01:28:08.233Z,999.50
2023-03-06T01:29:08.225Z,999.50
2023-03-06T01:30:08.223Z,999.46
2023-03-06T01:31:08.209Z,999.43
2023-03-06T01:32:08.298Z,999.42
2023-03-06T01:33:08.172Z,999.41
2023-03-06T01:34:08.168Z,999.37
2023-03-06T01:35:08.172Z,999.32
2023-03-06T01:36:08.185Z,999.29
2023-03-06T01:37:08.179Z,999.27
2023-03-06T01:38:08.131Z,999.23
2023-03-06T01:39:08.116Z,999.20
2023-03-06T01:40:08.110Z,999.20
2023-03-06T01:41:08.102Z,999.21
2023-03-06T01:42:08.116Z,999.19
2023-03-06T01:43:08.083Z,999.18
2023-03-06T01:44:08.075Z,999.18
2023-03-06T01:45:08.074Z,999.15
2023-03-06T01:46:08.089Z,999.11
2023-03-06T01:47:08.070Z,999.08
2023-03-06T01:48:08.034Z,999.07
2023-03-06T01:49:08.026Z,999.05
2023-03-06T01:50:08.037Z,999.03
2023-03-06T01:51:08.009Z,999.02
2023-03-06T01:52:08.038Z,998.99
2023-03-06T01:53:07.979Z,998.98
2023-03-06T01:54:07.997Z,998.96
2023-03-06T01:55:07.974Z,998.98
2023-03-06T01:56:07.961Z,998.93
2023-03-06T01:57:07.958Z,998.92
2023-03-06T01:58:07.935Z,998.93
2023-03-06T01:59:07.946Z,998.93
2023-03-06T02:00:07.945Z,998.92
2023-03-06T02:01:07.994Z,998.89
2023-03-06T02:02:08.079Z,998.85
2023-03-06T02:03:07.881Z,998.85
2023-03-06T02:04:07.892Z,998.83
2023-03-06T02:05:07.867Z,998.81
2023-03-06T02:06:07.847Z,998.81
2023-03-06T02:07:07.860Z,998.81
2023-03-06T02:08:07.842Z,998.84
2023-03-06T02:09:07.820Z,998.88
2023-03-06T02:10:07.818Z,998.88
2023-03-06T02:11:07.889Z,998.87
2023-03-06T02:12:07.824Z,998.83
2023-03-06T02:13:07.794Z,998.77
2023-03-06T02:14:07.769Z,998.72
2023-03-06T02:15:07.777Z,998.67
2023-03-06T02:16:07.759Z,998.71
2023-03-06T02:17:07.785Z,998.76
2023-03-06T02:18:07.734Z,998.76
2023-03-06T02:19:07.723Z,998.73
2023-03-06T02:20:07.724Z,998.70
2023-03-06T02:21:07.713Z,998.70
2023-03-06T02:22:07.725Z,998.68
2023-03-06T02:23:07.682Z,998.68
2023-03-06T02:24:07.676Z,998.72
2023-03-06T02:25:07.664Z,998.71
2023-03-06T02:26:07.644Z,998.68
2023-03-06T02:27:07.652Z,998.66
2023-03-06T02:28:07.641Z,998.64
2023-03-06T02:29:07.644Z,998.62
2023-03-06T02:30:07.619Z,998.60
2023-03-06T02:31:07.684Z,998.58
2023-03-06T02:32:07.662Z,998.55
2023-03-06T02:33:07.577Z,998.58
2023-03-06T02:34:07.579Z,998.60
2023-03-06T02:35:07.565Z,998.53
2023-03-06T02:36:07.549Z,998.56
2023-03-06T02:37:07.600Z,998.56
2023-03-06T02:38:07.533Z,998.54
2023-03-06T02:39:07.532Z,998.53
2023-03-06T02:40:07.523Z,998.53
2023-03-06T02:41:07.508Z,998.51
2023-03-06T02:42:07.528Z,998.48
2023-03-06T02:43:07.497Z,998.51
2023-03-06T02:44:07.464Z,998.51
2023-03-06T02:45:07.460Z,998.46
2023-03-06T02:46:07.487Z,998.44
2023-03-06T02:47:07.452Z,998.44
2023-03-06T02:48:07.452Z,998.44
2023-03-06T02:49:07.447Z,998.43
2023-03-06T02:50:07.398Z,998.42
2023-03-06T02:51:07.401Z,998.42
2023-03-06T02:52:07.428Z,998.38
2023-03-06T02:53:07.385Z,998.37
2023-03-06T02:54:07.361Z,998.34
2023-03-06T02:55:07.377Z,998.34
2023-03-06T02:56:07.334Z,998.34
2023-03-06T02:57:07.360Z,998.32
2023-03-06T02:58:07.392Z,998.29
2023-03-06T02:59:07.314Z,998.30
2023-03-06T03:00:07.291Z,998.35
2023-03-06T03:01:07.367Z,998.28
2023-03-06T03:02:07.303Z,998.30
2023-03-06T03:03:07.274Z,998.29
2023-03-06T03:04:07.285Z,998.28
2023-03-06T03:05:07.271Z,998.27
2023-03-06T03:06:07.243Z,998.25
2023-03-06T03:07:07.279Z,998.26
2023-03-06T03:08:07.223Z,998.26
2023-03-06T03:09:07.216Z,998.27
2023-03-06T03:10:07.203Z,998.28
2023-03-06T03:11:07.198Z,998.25
2023-03-06T03:12:07.225Z,998.26
2023-03-06T03:13:07.185Z,998.21
2023-03-06T03:14:07.165Z,998.22
2023-03-06T03:15:07.153Z,998.21
2023-03-06T03:16:07.235Z,998.21
2023-03-06T03:17:07.142Z,998.18
2023-03-06T03:18:07.155Z,998.18
2023-03-06T03:19:07.124Z,998.18
2023-03-06T03:20:07.102Z,998.17
2023-03-06T03:21:07.102Z,998.16
2023-03-06T03:22:07.076Z,998.19
2023-03-06T03:23:07.096Z,998.16
2023-03-06T03:24:07.064Z,998.16
2023-03-06T03:25:07.057Z,998.13
2023-03-06T03:26:07.063Z,998.14
2023-03-06T03:27:07.049Z,998.15
2023-03-06T03:28:07.031Z,998.12
2023-03-06T03:29:07.014Z,998.14
2023-03-06T03:30:06.999Z,998.14
2023-03-06T03:31:07.055Z,998.11
2023-03-06T03:32:07.019Z,998.09
2023-03-06T03:33:06.984Z,998.08
2023-03-06T03:34:06.957Z,998.04
2023-03-06T03:35:06.951Z,998.04
2023-03-06T03:36:06.943Z,998.07
2023-03-06T03:37:06.939Z,998.09
2023-03-06T03:38:06.938Z,998.11
2023-03-06T03:39:06.916Z,998.09
2023-03-06T03:40:06.906Z,998.11
2023-03-06T03:41:06.930Z,998.10
2023-03-06T03:42:06.893Z,998.09
2023-03-06T03:43:06.913Z,998.09
2023-03-06T03:44:06.860Z,998.09
2023-03-06T03:45:06.859Z,998.08
2023-03-06T03:46:06.912Z,998.08
2023-03-06T03:47:06.869Z,998.03
2023-03-06T03:48:06.849Z,998.04
2023-03-06T03:49:06.826Z,998.04
2023-03-06T03:50:06.829Z,998.03
2023-03-06T03:51:06.808Z,998.04
2023-03-06T03:52:06.820Z,998.04
2023-03-06T03:53:06.833Z,998.07
2023-03-06T03:54:06.789Z,998.09
2023-03-06T03:55:06.889Z,998.02
2023-03-06T03:56:06.757Z,998.04
2023-03-06T03:57:06.753Z,998.03
2023-03-06T03:58:06.748Z,998.01
2023-03-06T03:59:06.731Z,998.02
2023-03-06T04:00:06.707Z,998.04
2023-03-06T04:01:06.696Z,997.91
2023-03-06T04:02:06.727Z,998.03
2023-03-06T04:03:06.716Z,998.03
2023-03-06T04:04:06.722Z,998.04
2023-03-06T04:05:06.684Z,997.98
2023-03-06T04:06:06.650Z,997.97
2023-03-06T04:07:06.643Z,998.00
2023-03-06T04:08:06.669Z,998.02
2023-03-06T04:09:06.648Z,998.04
2023-03-06T04:10:06.620Z,997.99
2023-03-06T04:11:06.600Z,998.03
2023-03-06T04:12:06.576Z,998.02
2023-03-06T04:13:09.516Z,998.04
2023-03-06T04:14:06.578Z,998.08
2023-03-06T04:15:06.564Z,998.10
2023-03-06T04:16:06.576Z,998.12
2023-03-06T04:17:06.546Z,998.15
2023-03-06T04:18:06.553Z,998.17
2023-03-06T04:19:06.519Z,998.11
2023-03-06T04:20:06.522Z,998.16
2023-03-06T04:21:06.502Z,998.16
2023-03-06T04:22:06.486Z,998.17
2023-03-06T04:23:06.486Z,998.20
2023-03-06T04:24:06.476Z,998.18
2023-03-06T04:25:06.458Z,998.21
2023-03-06T04:26:06.458Z,998.20
2023-03-06T04:27:06.432Z,998.18
2023-03-06T04:28:06.430Z,998.18
2023-03-06T04:29:06.417Z,998.22
2023-03-06T04:30:06.421Z,998.23
2023-03-06T04:31:06.423Z,998.26
2023-03-06T04:32:06.442Z,998.25
2023-03-06T04:33:06.396Z,998.28
2023-03-06T04:34:06.364Z,998.26
2023-03-06T04:35:06.365Z,998.23
2023-03-06T04:36:06.358Z,998.27
2023-03-06T04:37:06.345Z,998.29
2023-03-06T04:38:06.374Z,998.26
2023-03-06T04:39:06.391Z,998.28
2023-03-06T04:40:06.325Z,998.28
2023-03-06T04:41:06.309Z,998.29
2023-03-06T04:42:06.288Z,998.27
2023-03-06T04:43:06.311Z,998.29
2023-03-06T04:44:06.266Z,998.30
2023-03-06T04:45:06.261Z,998.31
2023-03-06T04:46:06.409Z,998.34
2023-03-06T04:47:06.272Z,998.36
2023-03-06T04:48:06.266Z,998.38
2023-03-06T04:49:06.244Z,998.38
2023-03-06T04:50:06.218Z,998.38
2023-03-06T04:51:06.204Z,998.35
2023-03-06T04:52:06.186Z,998.36
2023-03-06T04:53:06.250Z,998.39
2023-03-06T04:54:06.198Z,998.41
2023-03-06T04:55:06.166Z,998.40
2023-03-06T04:56:06.179Z,998.42
2023-03-06T04:57:06.146Z,998.41
2023-03-06T04:58:06.154Z,998.41
2023-03-06T04:59:06.143Z,998.38
2023-03-06T05:00:06.124Z,998.38
2023-03-06T05:01:06.141Z,998.39
2023-03-06T05:02:06.142Z,998.37
2023-03-06T05:03:06.099Z,998.35
2023-03-06T05:04:06.073Z,998.35
2023-03-06T05:05:06.081Z,998.36
2023-03-06T05:06:06.067Z,998.36
2023-03-06T05:07:06.058Z,998.36
2023-03-06T05:08:06.061Z,998.37
2023-03-06T05:09:06.037Z,998.36
2023-03-06T05:10:06.078Z,998.38
2023-03-06T05:11:06.008Z,998.37
2023-03-06T05:12:05.990Z,998.36
2023-03-06T05:13:06.006Z,998.37
2023-03-06T05:14:05.992Z,998.35
2023-03-06T05:15:05.974Z,998.36
2023-03-06T05:16:06.067Z,998.37
2023-03-06T05:17:05.916Z,998.40
2023-03-06T05:18:11.962Z,998.40
2023-03-06T05:19:05.922Z,998.41
2023-03-06T05:20:05.924Z,998.41
2023-03-06T05:21:05.870Z,998.41
2023-03-06T05:22:05.838Z,998.43
2023-03-06T05:23:05.984Z,998.43
2023-03-06T05:24:05.884Z,998.46
2023-03-06T05:25:05.852Z,998.48
2023-03-06T05:26:05.807Z,998.48
2023-03-06T05:27:05.850Z,998.49
2023-03-06T05:28:05.771Z,998.49
2023-03-06T05:29:05.784Z,998.49
2023-03-06T05:30:05.774Z,998.50
2023-03-06T05:31:05.782Z,998.50
2023-03-06T05:32:05.878Z,998.49
2023-03-06T05:33:05.780Z,998.50
2023-03-06T05:34:05.741Z,998.51
2023-03-06T05:35:05.729Z,998.52
2023-03-06T05:36:05.713Z,998.53
2023-03-06T05:37:05.695Z,998.53
2023-03-06T05:38:05.686Z,998.52
2023-03-06T05:39:05.702Z,998.53
2023-03-06T05:40:05.684Z,998.52
2023-03-06T05:41:05.681Z,998.55
2023-03-06T05:42:05.729Z,998.58
2023-03-06T05:43:05.652Z,998.57
2023-03-06T05:44:05.656Z,998.57
2023-03-06T05:45:05.643Z,998.58
2023-03-06T05:46:05.732Z,998.58
2023-03-06T05:47:05.620Z,998.57
2023-03-06T05:48:05.599Z,998.58
2023-03-06T05:49:05.593Z,998.57
2023-03-06T05:50:05.574Z,998.58
2023-03-06T05:51:05.557Z,998.58
2023-03-06T05:52:05.573Z,998.58
2023-03-06T05:53:05.644Z,998.59
2023-03-06T05:54:05.546Z,998.60
2023-03-06T05:55:05.536Z,998.58
2023-03-06T05:56:05.558Z,998.58
2023-03-06T05:57:05.493Z,998.58
2023-03-06T05:58:05.509Z,998.58
2023-03-06T05:59:05.487Z,998.58
2023-03-06T06:00:05.479Z,998.60
2023-03-06T06:01:05.570Z,998.60
2023-03-06T06:02:05.639Z,998.60
2023-03-06T06:03:05.468Z,998.59
2023-03-06T06:04:05.420Z,998.59
2023-03-06T06:05:05.432Z,998.59
2023-03-06T06:06:05.399Z,998.58
2023-03-06T06:07:05.401Z,998.57
2023-03-06T06:08:05.390Z,998.56
2023-03-06T06:09:05.384Z,998.57
2023-03-06T06:10:05.368Z,998.58
2023-03-06T06:11:05.354Z,998.58
2023-03-06T06:12:05.367Z,998.59
2023-03-06T06:13:05.386Z,998.58
2023-03-06T06:14:05.320Z,998.58
2023-03-06T06:15:05.310Z,998.57
2023-03-06T06:16:05.334Z,998.58
2023-03-06T06:17:05.331Z,998.58
2023-03-06T06:18:05.394Z,998.58
2023-03-06T06:19:05.317Z,998.59
2023-03-06T06:20:05.300Z,998.58
2023-03-06T06:21:05.300Z,998.60
2023-03-06T06:22:05.321Z,998.63
2023-03-06T06:23:05.277Z,998.65
2023-03-06T06:24:05.250Z,998.66
2023-03-06T06:25:05.235Z,998.68
2023-03-06T06:26:05.245Z,998.67
2023-03-06T06:27:05.250Z,998.67
2023-03-06T06:28:05.190Z,998.67
2023-03-06T06:29:05.180Z,998.68
2023-03-06T06:30:05.173Z,998.70
2023-03-06T06:31:05.212Z,998.70
2023-03-06T06:32:05.782Z,998.72
2023-03-06T06:33:05.698Z,998.73
2023-03-06T06:34:05.151Z,998.73
2023-03-06T06:35:05.197Z,998.74
2023-03-06T06:36:05.175Z,998.76
2023-03-06T06:37:05.106Z,998.78
2023-03-06T06:38:05.090Z,998.76
2023-03-06T06:39:05.075Z,998.78
2023-03-06T06:40:05.065Z,998.77
2023-03-06T06:41:35.538Z,998.77
2023-03-06T06:42:28.144Z,998.76
2023-03-06T06:43:05.084Z,998.77
2023-03-06T06:44:07.198Z,998.77
2023-03-06T06:45:05.040Z,998.77
2023-03-06T06:46:31.515Z,998.77
2023-03-06T06:48:05.654Z,998.78
2023-03-06T06:49:04.966Z,998.77
2023-03-06T06:50:05.001Z,998.78
2023-03-06T06:51:04.948Z,998.79
2023-03-06T06:52:05.874Z,998.79
2023-03-06T06:53:04.946Z,998.80
2023-03-06T06:54:05.183Z,998.81
2023-03-06T06:55:04.970Z,998.81
2023-03-06T06:56:05.837Z,998.82
2023-03-06T06:57:04.924Z,998.80
2023-03-06T06:58:04.925Z,998.81
2023-03-06T06:59:16.006Z,998.82
2023-03-06T07:00:04.893Z,998.81
2023-03-06T07:01:04.850Z,998.82
2023-03-06T07:02:04.943Z,998.84
2023-03-06T07:03:04.848Z,998.85
2023-03-06T07:04:04.936Z,998.85
2023-03-06T07:05:05.653Z,998.84
2023-03-06T07:06:04.900Z,998.85
2023-03-06T07:07:04.859Z,998.83
2023-03-06T07:08:05.106Z,998.84
2023-03-06T07:09:04.792Z,998.83
2023-03-06T07:10:04.796Z,998.82
2023-03-06T07:11:04.755Z,998.82
2023-03-06T07:12:04.774Z,998.82
2023-03-06T07:13:04.906Z,998.81
2023-03-06T07:14:04.760Z,998.80
2023-03-06T07:15:04.720Z,998.80
2023-03-06T07:16:04.754Z,998.80
2023-03-06T07:17:04.709Z,998.81
2023-03-06T07:18:04.702Z,998.81
2023-03-06T07:19:04.695Z,998.81
2023-03-06T07:20:05.452Z,998.81
2023-03-06T07:21:04.779Z,998.82
2023-03-06T07:22:05.026Z,998.82
2023-03-06T07:23:04.995Z,998.82
2023-03-06T07:24:04.701Z,998.83
2023-03-06T07:25:04.878Z,998.83
2023-03-06T07:26:04.630Z,998.84
2023-03-06T07:27:04.707Z,998.84
2023-03-06T07:28:04.609Z,998.85
2023-03-06T07:29:04.598Z,998.84
2023-03-06T07:30:04.653Z,998.85
2023-03-06T07:31:04.668Z,998.86
2023-03-06T07:32:04.598Z,998.87
2023-03-06T07:33:04.576Z,998.86
2023-03-06T07:34:05.167Z,998.87
2023-03-06T07:35:19.348Z,998.87
2023-03-06T07:36:04.595Z,998.86
2023-03-06T07:37:04.499Z,998.87
2023-03-06T07:38:04.498Z,998.87
2023-03-06T07:39:04.527Z,998.86
2023-03-06T07:40:04.506Z,998.87
2023-03-06T07:41:04.490Z,998.88
2023-03-06T07:42:04.464Z,998.87
2023-03-06T07:43:18.408Z,998.87
2023-03-06T07:44:04.574Z,998.87
2023-03-06T07:45:04.759Z,998.86
2023-03-06T07:46:04.588Z,998.87
2023-03-06T07:47:04.756Z,998.87
2023-03-06T07:48:05.675Z,998.86
2023-03-06T07:49:04.571Z,998.87
2023-03-06T07:50:04.393Z,998.85
2023-03-06T07:51:04.428Z,998.87
2023-03-06T07:52:04.396Z,998.88
2023-03-06T07:53:04.354Z,998.88
2023-03-06T07:54:04.434Z,998.89
2023-03-06T07:55:04.439Z,998.89
2023-03-06T07:56:04.328Z,998.89
2023-03-06T07:57:04.309Z,998.89
2023-03-06T07:58:04.304Z,998.89
2023-03-06T07:59:04.321Z,998.88
2023-03-06T08:00:04.319Z,998.89
2023-03-06T08:01:04.268Z,998.90
2023-03-06T08:02:04.256Z,998.88
2023-03-06T08:03:04.300Z,998.89
2023-03-06T08:04:04.342Z,998.89
2023-03-06T08:05:04.235Z,998.88
2023-03-06T08:06:04.245Z,998.87
2023-03-06T08:07:04.217Z,998.87
2023-03-06T08:08:04.226Z,998.88
2023-03-06T08:09:04.221Z,998.88
2023-03-06T08:10:04.174Z,998.93
2023-03-06T08:11:04.187Z,998.92
2023-03-06T08:12:04.161Z,998.92
2023-03-06T08:13:04.139Z,998.92
2023-03-06T08:14:04.221Z,998.93
2023-03-06T08:15:04.133Z,998.92
2023-03-06T08:16:04.175Z,998.93
2023-03-06T08:17:04.099Z,998.91
2023-03-06T08:18:04.106Z,998.90
2023-03-06T08:19:04.098Z,998.90
2023-03-06T08:20:04.136Z,998.90
2023-03-06T08:21:04.068Z,998.91
2023-03-06T08:22:04.067Z,998.91
2023-03-06T08:23:04.170Z,998.91
2023-03-06T08:24:06.701Z,998.91
2023-03-06T08:25:04.443Z,998.91
2023-03-06T08:26:04.953Z,998.91
2023-03-06T08:27:04.032Z,998.91
2023-03-06T08:28:04.933Z,998.91
2023-03-06T08:29:04.040Z,998.91
2023-03-06T08:30:04.015Z,998.93
2023-03-06T08:31:04.000Z,998.93
2023-03-06T08:32:04.081Z,998.93
2023-03-06T08:33:03.968Z,998.95
2023-03-06T08:34:04.032Z,998.95
2023-03-06T08:35:03.910Z,998.95
2023-03-06T08:36:03.948Z,998.96
2023-03-06T08:37:03.902Z,998.96
2023-03-06T08:38:03.913Z,998.97
2023-03-06T08:39:03.890Z,998.96
2023-03-06T08:40:03.862Z,998.96
2023-03-06T08:41:03.873Z,998.96
2023-03-06T08:42:03.914Z,998.97
2023-03-06T08:43:03.822Z,998.98
2023-03-06T08:44:03.873Z,998.98
2023-03-06T08:45:03.884Z,998.98
2023-03-06T08:46:03.846Z,998.97
2023-03-06T08:47:03.802Z,998.98
2023-03-06T08:48:03.782Z,998.99
2023-03-06T08:49:03.872Z,998.99
2023-03-06T08:50:03.808Z,999.00
2023-03-06T08:51:03.815Z,998.99
2023-03-06T08:52:03.749Z,999.01
2023-03-06T08:53:03.738Z,999.03
2023-03-06T08:54:03.763Z,999.03
2023-03-06T08:55:03.792Z,999.05
2023-03-06T08:56:03.697Z,999.06
2023-03-06T08:57:03.709Z,999.07
2023-03-06T08:58:04.364Z,999.08
2023-03-06T08:59:03.662Z,999.08
2023-03-06T09:00:03.766Z,999.09
2023-03-06T09:01:03.896Z,999.09
2023-03-06T09:02:04.047Z,999.11
2023-03-06T09:03:04.695Z,999.10
2023-03-06T09:04:03.766Z,999.09
2023-03-06T09:05:03.616Z,999.11
2023-03-06T09:06:03.617Z,999.10
2023-03-06T09:07:03.626Z,999.09
2023-03-06T09:08:05.660Z,999.11
2023-03-06T09:09:03.562Z,999.11
2023-03-06T09:10:03.558Z,999.12
2023-03-06T09:11:03.534Z,999.12
2023-03-06T09:12:03.523Z,999.12
2023-03-06T09:13:03.502Z,999.12
2023-03-06T09:14:03.571Z,999.13
2023-03-06T09:15:03.504Z,999.12
2023-03-06T09:16:03.509Z,999.14
2023-03-06T09:17:03.497Z,999.15
2023-03-06T09:18:03.549Z,999.15
2023-03-06T09:19:03.500Z,999.14
2023-03-06T09:20:03.473Z,999.13
2023-03-06T09:21:03.426Z,999.13
2023-03-06T09:22:03.446Z,999.13
2023-03-06T09:23:03.404Z,999.14
2023-03-06T09:24:03.453Z,999.13
2023-03-06T09:25:03.416Z,999.13
2023-03-06T09:26:03.470Z,999.12
2023-03-06T09:27:03.389Z,999.12
2023-03-06T09:28:11.294Z,999.10
2023-03-06T09:29:03.405Z,999.08
2023-03-06T09:30:03.351Z,999.07
2023-03-06T09:31:03.367Z,999.07
2023-03-06T09:32:03.428Z,999.09
2023-03-06T09:33:03.328Z,999.10
2023-03-06T09:34:03.403Z,999.10
2023-03-06T09:35:03.299Z,999.10
2023-03-06T09:36:03.299Z,999.11
2023-03-06T09:37:03.310Z,999.10
2023-03-06T09:38:03.292Z,999.10
2023-03-06T09:39:03.260Z,999.10
2023-03-06T09:40:03.306Z,999.11
2023-03-06T09:41:03.274Z,999.12
2023-03-06T09:42:03.215Z,999.13
2023-03-06T09:43:03.207Z,999.11
2023-03-06T09:44:03.270Z,999.11
2023-03-06T09:45:03.174Z,999.12
2023-03-06T09:46:03.260Z,999.13
2023-03-06T09:47:03.156Z,999.14
2023-03-06T09:48:03.149Z,999.14
2023-03-06T09:49:03.145Z,999.15
2023-03-06T09:50:03.186Z,999.15
2023-03-06T09:51:03.151Z,999.15
2023-03-06T09:52:03.150Z,999.14
2023-03-06T09:53:03.173Z,999.14
2023-03-06T09:54:03.098Z,999.13
2023-03-06T09:55:03.104Z,999.12
2023-03-06T09:56:03.146Z,999.13
2023-03-06T09:57:03.111Z,999.13
2023-03-06T09:58:03.830Z,999.13
2023-03-06T09:59:03.056Z,999.14
2023-03-06T10:00:04.606Z,999.14
2023-03-06T10:01:05.848Z,999.13
2023-03-06T10:02:03.098Z,999.13
2023-03-06T10:03:03.121Z,999.13
2023-03-06T10:04:03.016Z,999.13
2023-03-06T10:05:03.028Z,999.13
2023-03-06T10:06:03.024Z,999.12
2023-03-06T10:07:02.992Z,999.15
2023-03-06T10:08:02.996Z,999.15
2023-03-06T10:09:02.948Z,999.16
2023-03-06T10:10:02.949Z,999.14
2023-03-06T10:11:02.927Z,999.13
2023-03-06T10:12:02.907Z,999.15
2023-03-06T10:13:02.927Z,999.14
2023-03-06T10:14:02.914Z,999.15
2023-03-06T10:15:02.894Z,999.15
2023-03-06T10:16:02.938Z,999.15
2023-03-06T10:17:02.985Z,999.16
2023-03-06T10:18:02.858Z,999.16
2023-03-06T10:19:02.837Z,999.16
2023-03-06T10:20:02.857Z,999.14
2023-03-06T10:21:18.441Z,999.13
2023-03-06T10:22:02.811Z,999.15
2023-03-06T10:23:05.177Z,999.15
2023-03-06T10:24:02.870Z,999.15
2023-03-06T10:25:02.864Z,999.15
2023-03-06T10:26:02.894Z,999.16
2023-03-06T10:27:02.799Z,999.16
2023-03-06T10:28:02.773Z,999.16
2023-03-06T10:29:02.749Z,999.18
2023-03-06T10:30:04.125Z,999.18
2023-03-06T10:31:02.851Z,999.18
2023-03-06T10:32:02.785Z,999.19
2023-03-06T10:33:03.429Z,999.20
2023-03-06T10:34:02.704Z,999.20
2023-03-06T10:35:02.774Z,999.20
2023-03-06T10:36:02.771Z,999.21
2023-03-06T10:37:02.657Z,999.20
2023-03-06T10:38:02.661Z,999.20
2023-03-06T10:39:02.664Z,999.21
2023-03-06T10:40:02.624Z,999.21
2023-03-06T10:41:02.667Z,999.21
2023-03-06T10:42:02.618Z,999.21
2023-03-06T10:43:11.463Z,999.20
2023-03-06T10:44:02.600Z,999.19
2023-03-06T10:45:02.614Z,999.18
2023-03-06T10:46:02.626Z,999.18
2023-03-06T10:47:02.559Z,999.19
2023-03-06T10:48:02.584Z,999.18
2023-03-06T10:49:02.669Z,999.18
2023-03-06T10:50:02.544Z,999.18
2023-03-06T10:51:09.827Z,999.18
2023-03-06T10:52:02.543Z,999.17
2023-03-06T10:53:02.526Z,999.17
2023-03-06T10:54:02.531Z,999.17
2023-03-06T10:55:02.526Z,999.18
2023-03-06T10:56:02.461Z,999.19
2023-03-06T10:57:02.466Z,999.19
2023-03-06T10:58:02.452Z,999.18
2023-03-06T10:59:02.493Z,999.18
2023-03-06T11:00:02.426Z,999.17
2023-03-06T11:01:02.511Z,999.17
2023-03-06T11:02:02.464Z,999.18
2023-03-06T11:03:02.403Z,999.17
2023-03-06T11:04:02.377Z,999.17
2023-03-06T11:05:02.455Z,999.18
2023-03-06T11:06:02.417Z,999.17
2023-03-06T11:07:02.355Z,999.18
2023-03-06T11:08:02.361Z,999.18
2023-03-06T11:09:02.362Z,999.18
2023-03-06T11:10:02.337Z,999.18
2023-03-06T11:11:02.337Z,999.17
2023-03-06T11:12:02.372Z,999.16
2023-03-06T11:13:02.305Z,999.15
2023-03-06T11:14:02.295Z,999.15
2023-03-06T11:15:02.306Z,999.16
2023-03-06T11:16:02.404Z,999.15
2023-03-06T11:17:02.279Z,999.14
2023-03-06T11:18:02.306Z,999.14
2023-03-06T11:19:02.267Z,999.13
2023-03-06T11:20:02.237Z,999.13
2023-03-06T11:21:02.216Z,999.11
2023-03-06T11:22:02.309Z,999.09
2023-03-06T11:23:02.208Z,999.10
2023-03-06T11:24:02.258Z,999.09
2023-03-06T11:25:02.364Z,999.08
2023-03-06T11:26:02.179Z,999.07
2023-03-06T11:27:02.161Z,999.07
2023-03-06T11:28:02.186Z,999.04
2023-03-06T11:29:02.246Z,999.03
2023-03-06T11:30:02.159Z,999.05
2023-03-06T11:31:02.307Z,999.04
2023-03-06T11:32:02.145Z,999.05
2023-03-06T11:33:02.092Z,999.05
2023-03-06T11:34:02.097Z,999.02
2023-03-06T11:35:02.202Z,999.03
2023-03-06T11:36:02.056Z,999.00
2023-03-06T11:37:02.090Z,999.02
2023-03-06T11:38:02.024Z,999.01
2023-03-06T11:39:02.074Z,999.00
2023-03-06T11:40:02.027Z,998.99
2023-03-06T11:41:02.051Z,999.01
2023-03-06T11:42:02.049Z,999.02
2023-03-06T11:43:01.994Z,999.00
2023-03-06T11:44:02.022Z,998.99
2023-03-06T11:45:03.182Z,999.00
2023-03-06T11:46:01.969Z,998.99
2023-03-06T11:47:01.973Z,999.00
2023-03-06T11:48:01.954Z,998.99
2023-03-06T11:49:01.940Z,998.98
2023-03-06T11:50:01.909Z,998.94
2023-03-06T11:51:02.044Z,998.94
2023-03-06T11:52:01.941Z,998.91
2023-03-06T11:53:01.883Z,998.90
2023-03-06T11:54:01.860Z,998.91
2023-03-06T11:55:02.090Z,998.92
2023-03-06T11:56:01.876Z,998.91
2023-03-06T11:57:01.901Z,998.90
2023-03-06T11:58:01.848Z,998.92
2023-03-06T11:59:01.843Z,998.91
2023-03-06T12:00:09.437Z,998.89
2023-03-06T12:01:01.795Z,998.87
2023-03-06T12:02:01.833Z,998.86
2023-03-06T12:03:01.807Z,998.82
2023-03-06T12:04:01.786Z,998.83
2023-03-06T12:05:01.942Z,998.85
2023-03-06T12:06:01.775Z,998.86
2023-03-06T12:07:01.748Z,998.87
2023-03-06T12:08:01.744Z,998.86
2023-03-06T12:09:01.773Z,998.86
2023-03-06T12:10:01.725Z,998.87
2023-03-06T12:11:01.713Z,998.85
2023-03-06T12:12:01.715Z,998.85
2023-03-06T12:13:01.680Z,998.83
2023-03-06T12:14:03.968Z,998.81
2023-03-06T12:15:01.780Z,998.80
2023-03-06T12:16:01.672Z,998.79
2023-03-06T12:17:01.646Z,998.78
2023-03-06T12:18:01.631Z,998.78
2023-03-06T12:19:01.636Z,998.77
2023-03-06T12:20:01.627Z,998.77
2023-03-06T12:21:01.638Z,998.76
2023-03-06T12:22:01.597Z,998.76
2023-03-06T12:23:15.040Z,998.76
2023-03-06T12:24:01.577Z,998.76
2023-03-06T12:25:01.833Z,998.77
2023-03-06T12:26:01.557Z,998.77
2023-03-06T12:27:01.621Z,998.78